Saint Johnsbury, Vermont
Current Conditions -  °F | °C
As of 1:55 AM on Sunday 23 Nov 2014 (Local Time) from KCDA Reporting Station
Overcast Overcast  
Wind Chill: 31°   Ceiling: 1800
Heat Index: 35°   Visibility: 10mi
Dew Point: 26°   Wind: 5mph
Humidity: 68%   Direction: 130°SE
Pressure: 29.95"   Gusts: NA
Location:  44.42°N, 72.01°W
Report Text: KCDA 230655Z AUTO 13004KT 10SM OVC018 02/M04 A2995 RMK AO2 T00181036
Loading
Personal Weather Stations






























Interactive Weather Map New forecast layout! Learn more

10-Day Weather Forecast

Advertisements
Track Severe Weather on mobile